BHQ weather

Broken Hill Airport
Broken Hill, New South Wales, Australia

Public forecast

Using degrees Celsius for public forecast. Weather courtesy of forecast.io.

METAR (pilot weather report)

Retrieved 2019/05/20 16:00 UTC (13 minutes ago):

YBHI 201600Z AUTO 00000KT 9999 // BKN061 14/09 Q1023

TAF (pilot weather forecast)

Forecast is more than 12 hours old.

Closest forecast is Whyalla Airport, 210.2 nm (389.2 km) WSW. Retrieved 2018/11/15 18:03 UTC (6 months ago):

TAF YWHA 151701Z 1518/1608 VRB05KT CAVOK FM152300 18012KT CAVOK FM160200 18018KT CAVOK